Time,TemperatureF,DewpointF,PressureIn,WindDirection,WindDirectionDegrees,WindSpeedMPH,WindSpeedGustMPH,Humidity,HourlyPrecipIn,Conditions,Clouds,dailyrainin,SoftwareType,DateUTC
2013-02-10 00:00:00,15.3,7.9,31.00,SSE,151,0.0,7.0,72,0.00,,,0.00,Weather View 32 v70,2013-02-10 07:00:00,
2013-02-10 00:05:00,15.3,7.9,31.00,SE,130,0.0,7.0,72,0.00,,,0.00,Weather View 32 v70,2013-02-10 07:05:00,
2013-02-10 00:10:00,15.4,5.8,31.00,South,176,0.0,7.0,65,0.00,,,0.00,Weather View 32 v70,2013-02-10 07:10:00,
2013-02-10 00:15:00,16.2,5.8,31.00,SSW,195,6.0,7.0,63,0.00,,,0.00,Weather View 32 v70,2013-02-10 07:15:00,
2013-02-10 00:20:00,16.5,6.1,31.00,West,266,0.0,7.0,63,0.00,,,0.00,Weather View 32 v70,2013-02-10 07:20:00,
2013-02-10 00:25:00,15.4,6.4,31.00,South,179,0.0,7.0,67,0.00,,,0.00,Weather View 32 v70,2013-02-10 07:25:00,
2013-02-10 00:30:00,14.9,6.3,31.00,SSW,202,8.0,8.0,68,0.00,,,0.00,Weather View 32 v70,2013-02-10 07:30:00,
2013-02-10 00:35:00,16.7,5.2,31.00,South,189,2.0,8.0,60,0.00,,,0.00,Weather View 32 v70,2013-02-10 07:35:00,
2013-02-10 00:40:00,17.1,5.2,31.00,SW,231,4.0,8.0,59,0.00,,,0.00,Weather View 32 v70,2013-02-10 07:40:00,
2013-02-10 00:45:00,17.2,5.4,31.00,West,268,0.0,8.0,59,0.00,,,0.00,Weather View 32 v70,2013-02-10 07:45:00,
2013-02-10 00:50:00,17.2,5.4,31.00,West,269,0.0,8.0,59,0.00,,,0.00,Weather View 32 v70,2013-02-10 07:50:00,
2013-02-10 00:55:00,17.4,4.8,31.00,WNW,290,0.0,8.0,57,0.00,,,0.00,Weather View 32 v70,2013-02-10 07:55:00,
2013-02-10 01:00:00,17.6,5.7,31.00,South,174,0.0,8.0,59,0.00,,,0.00,Weather View 32 v70,2013-02-10 08:00:00,
2013-02-10 01:05:00,17.4,5.5,31.00,SSE,150,0.0,8.0,59,0.00,,,0.00,Weather View 32 v70,2013-02-10 08:05:00,
2013-02-10 01:10:00,17.8,4.3,31.00,SW,235,0.0,8.0,55,0.00,,,0.00,Weather View 32 v70,2013-02-10 08:10:00,
2013-02-10 01:15:00,18.0,5.3,31.00,SSE,147,0.0,8.0,57,0.00,,,0.00,Weather View 32 v70,2013-02-10 08:15:00,
2013-02-10 01:20:00,17.8,4.7,31.00,SW,233,4.0,8.0,56,0.00,,,0.00,Weather View 32 v70,2013-02-10 08:20:00,
2013-02-10 01:25:00,17.8,4.3,31.00,SSE,151,4.0,8.0,55,0.00,,,0.00,Weather View 32 v70,2013-02-10 08:25:00,
2013-02-10 01:30:00,18.0,4.5,31.00,WSW,247,8.0,8.0,55,0.00,,,0.00,Weather View 32 v70,2013-02-10 08:30:00,
2013-02-10 01:35:00,18.3,4.5,31.00,South,180,4.0,8.0,54,0.00,,,0.00,Weather View 32 v70,2013-02-10 08:35:00,
2013-02-10 01:40:00,18.0,5.7,31.00,SSE,153,0.0,8.0,58,0.00,,,0.00,Weather View 32 v70,2013-02-10 08:40:00,
2013-02-10 01:45:00,17.1,6.6,31.00,SSE,147,0.0,8.0,63,0.00,,,0.00,Weather View 32 v70,2013-02-10 08:45:00,
2013-02-10 01:50:00,16.5,6.8,31.00,NW,308,0.0,8.0,65,0.00,,,0.00,Weather View 32 v70,2013-02-10 08:50:00,
2013-02-10 01:55:00,16.5,4.3,31.00,SW,227,0.0,8.0,58,0.00,,,0.00,Weather View 32 v70,2013-02-10 08:55:00,
2013-02-10 02:00:00,17.6,4.6,31.00,SSE,159,3.0,8.0,56,0.00,,,0.00,Weather View 32 v70,2013-02-10 09:00:00,
2013-02-10 02:05:00,18.0,4.1,31.00,SE,141,0.0,11.0,54,0.00,,,0.00,Weather View 32 v70,2013-02-10 09:05:00,
2013-02-10 02:10:00,17.8,4.7,31.00,NNW,334,0.0,11.0,56,0.00,,,0.00,Weather View 32 v70,2013-02-10 09:10:00,
2013-02-10 02:15:00,17.8,5.5,31.00,SW,232,0.0,11.0,58,0.00,,,0.00,Weather View 32 v70,2013-02-10 09:15:00,
2013-02-10 02:20:00,17.6,5.3,31.00,South,176,0.0,11.0,58,0.00,,,0.00,Weather View 32 v70,2013-02-10 09:20:00,
2013-02-10 02:25:00,17.8,5.1,31.00,SE,126,4.0,11.0,57,0.00,,,0.00,Weather View 32 v70,2013-02-10 09:25:00,
2013-02-10 02:30:00,17.8,5.1,31.00,SSE,150,0.0,11.0,57,0.00,,,0.00,Weather View 32 v70,2013-02-10 09:30:00,
2013-02-10 02:35:00,17.4,5.5,31.00,SSE,166,0.0,11.0,59,0.00,,,0.00,Weather View 32 v70,2013-02-10 09:35:00,
2013-02-10 02:40:00,16.9,6.1,31.00,ESE,123,3.0,11.0,62,0.00,,,0.00,Weather View 32 v70,2013-02-10 09:40:00,
2013-02-10 02:45:00,16.7,5.2,31.00,East,95,0.0,11.0,60,0.00,,,0.00,Weather View 32 v70,2013-02-10 09:45:00,
2013-02-10 02:50:00,16.9,6.5,31.00,SSE,151,0.0,11.0,63,0.00,,,0.00,Weather View 32 v70,2013-02-10 09:50:00,
2013-02-10 02:55:00,17.1,4.8,31.00,North,8,0.0,11.0,58,0.00,,,0.00,Weather View 32 v70,2013-02-10 09:55:00,
2013-02-10 03:00:00,17.4,5.2,31.00,SE,139,0.0,11.0,58,0.00,,,0.00,Weather View 32 v70,2013-02-10 10:00:00,
2013-02-10 03:05:00,17.6,5.3,31.00,SSE,164,0.0,7.0,58,0.00,,,0.00,Weather View 32 v70,2013-02-10 10:05:00,
2013-02-10 03:10:00,17.6,4.6,31.00,SSE,149,0.0,7.0,56,0.00,,,0.00,Weather View 32 v70,2013-02-10 10:10:00,
2013-02-10 03:15:00,17.8,5.1,31.00,SE,132,5.0,7.0,57,0.00,,,0.00,Weather View 32 v70,2013-02-10 10:15:00,
2013-02-10 03:20:00,17.8,5.5,31.00,SE,141,4.0,7.0,58,0.00,,,0.00,Weather View 32 v70,2013-02-10 10:20:00,
2013-02-10 03:25:00,17.8,3.5,31.00,SSW,192,0.0,7.0,53,0.00,,,0.00,Weather View 32 v70,2013-02-10 10:25:00,
2013-02-10 03:30:00,18.1,5.1,31.00,SE,141,2.0,6.0,56,0.00,,,0.00,Weather View 32 v70,2013-02-10 10:30:00,
2013-02-10 03:35:00,18.1,3.0,31.00,South,169,0.0,10.0,51,0.00,,,0.00,Weather View 32 v70,2013-02-10 10:35:00,
2013-02-10 03:40:00,18.1,3.0,31.00,SE,125,8.0,10.0,51,0.00,,,0.00,Weather View 32 v70,2013-02-10 10:40:00,
2013-02-10 03:45:00,18.1,4.3,31.00,East,99,4.0,10.0,54,0.00,,,0.00,Weather View 32 v70,2013-02-10 10:45:00,
2013-02-10 03:50:00,18.0,3.7,31.00,SE,131,0.0,10.0,53,0.00,,,0.00,Weather View 32 v70,2013-02-10 10:50:00,
2013-02-10 03:55:00,18.1,3.0,31.00,SW,227,0.0,10.0,51,0.00,,,0.00,Weather View 32 v70,2013-02-10 10:55:00,
2013-02-10 04:00:00,17.8,2.3,31.00,East,82,0.0,10.0,50,0.00,,,0.00,Weather View 32 v70,2013-02-10 11:00:00,
2013-02-10 04:05:00,18.0,3.3,31.00,SE,127,0.0,10.0,52,0.00,,,0.00,Weather View 32 v70,2013-02-10 11:05:00,
2013-02-10 04:10:00,17.6,4.2,31.00,SE,133,0.0,10.0,55,0.00,,,0.00,Weather View 32 v70,2013-02-10 11:10:00,
2013-02-10 04:15:00,17.6,2.5,31.00,ESE,106,0.0,10.0,51,0.00,,,0.00,Weather View 32 v70,2013-02-10 11:15:00,
2013-02-10 04:20:00,17.8,3.5,31.00,NW,323,0.0,10.0,53,0.00,,,0.00,Weather View 32 v70,2013-02-10 11:20:00,
2013-02-10 04:25:00,17.4,3.6,31.00,East,91,3.0,10.0,54,0.00,,,0.00,Weather View 32 v70,2013-02-10 11:25:00,
2013-02-10 04:30:00,17.4,4.0,31.00,West,267,0.0,10.0,55,0.00,,,0.00,Weather View 32 v70,2013-02-10 11:30:00,
2013-02-10 04:35:00,17.6,4.2,31.00,ESE,119,0.0,9.0,55,0.00,,,0.00,Weather View 32 v70,2013-02-10 11:35:00,
2013-02-10 04:40:00,17.4,3.6,31.00,South,190,0.0,9.0,54,0.00,,,0.00,Weather View 32 v70,2013-02-10 11:40:00,
2013-02-10 04:45:00,17.4,4.4,31.00,SSW,201,0.0,9.0,56,0.00,,,0.00,Weather View 32 v70,2013-02-10 11:45:00,
2013-02-10 04:50:00,16.9,5.0,31.00,WSW,254,0.0,8.0,59,0.00,,,0.00,Weather View 32 v70,2013-02-10 11:50:00,
2013-02-10 04:55:00,16.3,4.9,31.00,SSE,162,0.0,8.0,60,0.00,,,0.00,Weather View 32 v70,2013-02-10 11:55:00,
2013-02-10 05:00:00,16.7,2.5,31.00,South,177,0.0,8.0,53,0.00,,,0.00,Weather View 32 v70,2013-02-10 12:00:00,
2013-02-10 05:05:00,17.4,3.6,31.00,SW,227,0.0,8.0,54,0.00,,,0.00,Weather View 32 v70,2013-02-10 12:05:00,
2013-02-10 05:10:00,17.2,3.4,31.00,SW,216,0.0,8.0,54,0.00,,,0.00,Weather View 32 v70,2013-02-10 12:10:00,
2013-02-10 05:15:00,17.1,3.7,31.00,SW,216,0.0,5.0,55,0.00,,,0.00,Weather View 32 v70,2013-02-10 12:15:00,
2013-02-10 05:20:00,16.7,4.5,31.00,SW,216,0.0,5.0,58,0.00,,,0.00,Weather View 32 v70,2013-02-10 12:20:00,
2013-02-10 05:25:00,16.3,4.2,31.00,SW,216,0.0,5.0,58,0.00,,,0.00,Weather View 32 v70,2013-02-10 12:25:00,
2013-02-10 05:30:00,15.8,5.1,31.00,SW,216,0.0,5.0,62,0.00,,,0.00,Weather View 32 v70,2013-02-10 12:30:00,
2013-02-10 05:35:00,15.4,5.8,31.00,SW,216,0.0,5.0,65,0.00,,,0.00,Weather View 32 v70,2013-02-10 12:35:00,
2013-02-10 05:40:00,15.1,5.8,31.00,SW,216,0.0,5.0,66,0.00,,,0.00,Weather View 32 v70,2013-02-10 12:40:00,
2013-02-10 05:45:00,14.7,5.8,31.00,SW,216,0.0,5.0,67,0.00,,,0.00,Weather View 32 v70,2013-02-10 12:45:00,
2013-02-10 05:50:00,14.5,6.2,31.00,SW,216,0.0,5.0,69,0.00,,,0.00,Weather View 32 v70,2013-02-10 12:50:00,
2013-02-10 05:55:00,14.2,6.8,31.00,SW,216,0.0,5.0,72,0.00,,,0.00,Weather View 32 v70,2013-02-10 12:55:00,
2013-02-10 06:00:00,13.8,6.8,31.00,SW,216,0.0,4.0,73,0.00,,,0.00,Weather View 32 v70,2013-02-10 13:00:00,
2013-02-10 06:05:00,13.6,6.6,31.00,SW,216,0.0,0.0,73,0.00,,,0.00,Weather View 32 v70,2013-02-10 13:05:00,
2013-02-10 06:10:00,13.5,6.4,31.00,SW,216,0.0,0.0,73,0.00,,,0.00,Weather View 32 v70,2013-02-10 13:10:00,
2013-02-10 06:15:00,13.1,6.1,31.00,SW,216,0.0,0.0,73,0.00,,,0.00,Weather View 32 v70,2013-02-10 13:15:00,
2013-02-10 06:20:00,12.9,5.9,31.00,SW,216,0.0,0.0,73,0.00,,,0.00,Weather View 32 v70,2013-02-10 13:20:00,
2013-02-10 06:25:00,12.9,5.9,31.00,SW,216,0.0,0.0,73,0.00,,,0.00,Weather View 32 v70,2013-02-10 13:25:00,
2013-02-10 06:30:00,12.9,5.9,31.00,SW,216,0.0,0.0,73,0.00,,,0.00,Weather View 32 v70,2013-02-10 13:30:00,
2013-02-10 06:35:00,12.7,5.7,31.00,SW,216,0.0,0.0,73,0.00,,,0.00,Weather View 32 v70,2013-02-10 13:35:00,
2013-02-10 06:40:00,12.7,5.7,31.00,SW,216,0.0,0.0,73,0.00,,,0.00,Weather View 32 v70,2013-02-10 13:40:00,
2013-02-10 06:45:00,12.9,5.9,31.00,SW,216,0.0,0.0,73,0.00,,,0.00,Weather View 32 v70,2013-02-10 13:45:00,
2013-02-10 06:50:00,12.9,5.9,31.00,SW,216,0.0,0.0,73,0.00,,,0.00,Weather View 32 v70,2013-02-10 13:50:00,
2013-02-10 06:55:00,13.1,6.1,31.00,SW,216,0.0,0.0,73,0.00,,,0.00,Weather View 32 v70,2013-02-10 13:55:00,
2013-02-10 07:00:00,13.3,6.3,31.00,SW,216,0.0,0.0,73,0.00,,,0.00,Weather View 32 v70,2013-02-10 14:00:00,
2013-02-10 07:05:00,13.5,6.4,31.00,SW,222,0.0,0.0,73,0.00,,,0.00,Weather View 32 v70,2013-02-10 14:05:00,
2013-02-10 07:10:00,14.2,7.4,31.00,SW,223,0.0,0.0,74,0.00,,,0.00,Weather View 32 v70,2013-02-10 14:10:00,
2013-02-10 07:15:00,14.4,7.6,31.00,SW,223,0.0,0.0,74,0.00,,,0.00,Weather View 32 v70,2013-02-10 14:15:00,
2013-02-10 07:20:00,14.5,7.8,31.00,SW,223,0.0,0.0,74,0.00,,,0.00,Weather View 32 v70,2013-02-10 14:20:00,
2013-02-10 07:25:00,14.9,8.4,31.00,SW,223,0.0,0.0,75,0.00,,,0.00,Weather View 32 v70,2013-02-10 14:25:00,
2013-02-10 07:30:00,15.1,8.6,31.00,SW,223,0.0,0.0,75,0.00,,,0.00,Weather View 32 v70,2013-02-10 14:30:00,
2013-02-10 07:35:00,15.3,8.5,31.00,SW,223,0.0,0.0,74,0.00,,,0.00,Weather View 32 v70,2013-02-10 14:35:00,
2013-02-10 07:40:00,15.4,8.6,31.00,SW,223,0.0,0.0,74,0.00,,,0.00,Weather View 32 v70,2013-02-10 14:40:00,
2013-02-10 07:45:00,15.8,9.3,31.00,SW,223,0.0,0.0,75,0.00,,,0.00,Weather View 32 v70,2013-02-10 14:45:00,
2013-02-10 07:50:00,16.2,9.3,31.00,SW,223,0.0,0.0,74,0.00,,,0.00,Weather View 32 v70,2013-02-10 14:50:00,
2013-02-10 07:55:00,16.7,9.2,31.00,SSW,213,0.0,0.0,72,0.00,,,0.00,Weather View 32 v70,2013-02-10 14:55:00,
2013-02-10 08:00:00,17.2,9.5,31.00,SSW,213,0.0,0.0,71,0.00,,,0.00,Weather View 32 v70,2013-02-10 15:00:00,
2013-02-10 08:05:00,17.6,9.5,31.00,SSW,213,0.0,0.0,70,0.00,,,0.00,Weather View 32 v70,2013-02-10 15:05:00,
2013-02-10 08:10:00,18.3,9.5,31.00,SSW,213,0.0,0.0,68,0.00,,,0.00,Weather View 32 v70,2013-02-10 15:10:00,
2013-02-10 08:15:00,18.7,8.5,31.00,SSW,213,0.0,0.0,64,0.00,,,0.00,Weather View 32 v70,2013-02-10 15:15:00,
2013-02-10 08:20:00,19.2,7.6,31.00,SSW,205,0.0,0.0,60,0.00,,,0.00,Weather View 32 v70,2013-02-10 15:20:00,
2013-02-10 08:25:00,19.6,4.8,31.00,SSW,208,0.0,0.0,52,0.00,,,0.00,Weather View 32 v70,2013-02-10 15:25:00,
2013-02-10 08:30:00,20.1,3.6,31.00,SSW,206,0.0,0.0,48,0.00,,,0.00,Weather View 32 v70,2013-02-10 15:30:00,
2013-02-10 08:35:00,20.3,2.8,31.00,SSW,206,0.0,0.0,46,0.00,,,0.00,Weather View 32 v70,2013-02-10 15:35:00,
2013-02-10 08:40:00,20.7,4.5,31.00,SSW,206,0.0,0.0,49,0.00,,,0.00,Weather View 32 v70,2013-02-10 15:40:00,
2013-02-10 08:45:00,20.8,2.8,31.00,SSW,206,0.0,0.0,45,0.00,,,0.00,Weather View 32 v70,2013-02-10 15:45:00,
2013-02-10 08:50:00,21.0,3.5,31.00,ENE,59,0.0,0.0,46,0.00,,,0.00,Weather View 32 v70,2013-02-10 15:50:00,
2013-02-10 08:55:00,21.2,3.6,31.00,East,82,0.0,0.0,46,0.00,,,0.00,Weather View 32 v70,2013-02-10 15:55:00,
2013-02-10 09:00:00,21.2,3.2,31.00,ENE,74,0.0,0.0,45,0.00,,,0.00,Weather View 32 v70,2013-02-10 16:00:00,
2013-02-10 09:05:00,21.4,2.8,31.00,ENE,74,0.0,0.0,44,0.00,,,0.00,Weather View 32 v70,2013-02-10 16:05:00,
2013-02-10 09:10:00,21.7,5.1,31.00,ENE,68,0.0,0.0,48,0.00,,,0.00,Weather View 32 v70,2013-02-10 16:10:00,
2013-02-10 09:15:00,21.7,6.0,31.00,ENE,65,4.0,5.0,50,0.00,,,0.00,Weather View 32 v70,2013-02-10 16:15:00,
2013-02-10 09:20:00,21.9,7.0,31.00,ESE,108,0.0,6.0,52,0.00,,,0.00,Weather View 32 v70,2013-02-10 16:20:00,
2013-02-10 09:25:00,21.9,6.1,31.00,SSE,153,0.0,6.0,50,0.00,,,0.00,Weather View 32 v70,2013-02-10 16:25:00,
2013-02-10 09:30:00,22.3,6.5,31.00,NE,47,0.0,6.0,50,0.00,,,0.00,Weather View 32 v70,2013-02-10 16:30:00,
2013-02-10 09:35:00,22.5,7.5,31.00,ENE,59,0.0,6.0,52,0.00,,,0.00,Weather View 32 v70,2013-02-10 16:35:00,
2013-02-10 09:40:00,22.6,7.2,31.00,East,98,0.0,6.0,51,0.00,,,0.00,Weather View 32 v70,2013-02-10 16:40:00,
2013-02-10 09:45:00,22.8,7.0,31.00,North,4,0.0,6.0,50,0.00,,,0.00,Weather View 32 v70,2013-02-10 16:45:00,
2013-02-10 09:50:00,22.5,6.6,31.00,ENE,65,0.0,6.0,50,0.00,,,0.00,Weather View 32 v70,2013-02-10 16:50:00,
2013-02-10 09:55:00,22.3,6.5,31.00,North,357,0.0,6.0,50,0.00,,,0.00,Weather View 32 v70,2013-02-10 16:55:00,
2013-02-10 10:00:00,22.3,7.3,31.00,NE,48,0.0,6.0,52,0.00,,,0.00,Weather View 32 v70,2013-02-10 17:00:00,
2013-02-10 10:05:00,22.6,8.1,31.00,East,87,0.0,6.0,53,0.00,,,0.00,Weather View 32 v70,2013-02-10 17:05:00,
2013-02-10 10:10:00,21.9,7.8,31.00,ENE,68,4.0,6.0,54,0.00,,,0.00,Weather View 32 v70,2013-02-10 17:10:00,
2013-02-10 10:15:00,22.1,8.4,31.00,North,8,0.0,6.0,55,0.00,,,0.00,Weather View 32 v70,2013-02-10 17:15:00,
2013-02-10 10:20:00,22.5,9.1,31.00,ESE,112,0.0,6.0,56,0.00,,,0.00,Weather View 32 v70,2013-02-10 17:20:00,
2013-02-10 10:25:00,22.8,9.1,31.00,North,353,0.0,6.0,55,0.00,,,0.00,Weather View 32 v70,2013-02-10 17:25:00,
2013-02-10 10:30:00,23.0,9.2,31.00,NNE,19,0.0,6.0,55,0.00,,,0.00,Weather View 32 v70,2013-02-10 17:30:00,
2013-02-10 10:35:00,22.5,8.7,31.00,ENE,70,0.0,6.0,55,0.00,,,0.00,Weather View 32 v70,2013-02-10 17:35:00,
2013-02-10 10:40:00,22.5,8.7,31.00,ENE,71,0.0,6.0,55,0.00,,,0.00,Weather View 32 v70,2013-02-10 17:40:00,
2013-02-10 10:45:00,22.8,8.7,31.00,ENE,78,0.0,6.0,54,0.00,,,0.00,Weather View 32 v70,2013-02-10 17:45:00,
2013-02-10 10:50:00,22.8,8.7,31.00,NNE,23,0.0,6.0,54,0.00,,,0.00,Weather View 32 v70,2013-02-10 17:50:00,
2013-02-10 10:55:00,23.4,8.7,31.00,NNW,329,0.0,6.0,53,0.00,,,0.00,Weather View 32 v70,2013-02-10 17:55:00,
2013-02-10 11:00:00,24.3,7.4,31.00,ENE,63,3.0,6.0,48,0.00,,,0.00,Weather View 32 v70,2013-02-10 18:00:00,
2013-02-10 11:05:00,24.8,7.4,31.00,ENE,66,0.0,6.0,47,0.00,,,0.00,Weather View 32 v70,2013-02-10 18:05:00,
2013-02-10 11:10:00,24.8,8.3,31.00,ESE,105,0.0,6.0,49,0.00,,,0.00,Weather View 32 v70,2013-02-10 18:10:00,
2013-02-10 11:15:00,24.1,6.3,31.00,WSW,241,0.0,5.0,46,0.00,,,0.00,Weather View 32 v70,2013-02-10 18:15:00,
2013-02-10 11:20:00,23.7,7.3,31.00,SSE,147,0.0,5.0,49,0.00,,,0.00,Weather View 32 v70,2013-02-10 18:20:00,
2013-02-10 11:25:00,23.4,7.9,31.00,ENE,74,0.0,5.0,51,0.00,,,0.00,Weather View 32 v70,2013-02-10 18:25:00,
2013-02-10 11:30:00,22.8,7.0,31.00,ESE,107,2.0,5.0,50,0.00,,,0.00,Weather View 32 v70,2013-02-10 18:30:00,
2013-02-10 11:35:00,22.5,7.5,31.00,WNW,303,0.0,5.0,52,0.00,,,0.00,Weather View 32 v70,2013-02-10 18:35:00,
2013-02-10 11:40:00,22.6,8.9,31.00,East,80,3.0,5.0,55,0.00,,,0.00,Weather View 32 v70,2013-02-10 18:40:00,
2013-02-10 11:45:00,21.7,8.5,31.00,SE,142,4.0,6.0,56,0.00,,,0.00,Weather View 32 v70,2013-02-10 18:45:00,
2013-02-10 11:50:00,21.7,10.4,31.00,East,96,0.0,6.0,61,0.00,,,0.00,Weather View 32 v70,2013-02-10 18:50:00,
2013-02-10 11:55:00,21.9,9.8,31.00,ESE,110,0.0,6.0,59,0.00,,,0.00,Weather View 32 v70,2013-02-10 18:55:00,
2013-02-10 12:00:00,21.9,10.5,31.00,East,95,0.0,6.0,61,0.00,,,0.00,Weather View 32 v70,2013-02-10 19:00:00,
2013-02-10 12:05:00,21.7,10.0,31.00,SE,136,0.0,6.0,60,0.00,,,0.00,Weather View 32 v70,2013-02-10 19:05:00,
2013-02-10 12:10:00,21.7,9.6,31.00,East,80,0.0,6.0,59,0.00,,,0.00,Weather View 32 v70,2013-02-10 19:10:00,
2013-02-10 12:15:00,21.6,8.3,31.00,North,2,0.0,6.0,56,0.00,,,0.00,Weather View 32 v70,2013-02-10 19:15:00,
2013-02-10 12:20:00,22.1,8.0,31.00,East,93,0.0,6.0,54,0.00,,,0.00,Weather View 32 v70,2013-02-10 19:20:00,
2013-02-10 12:25:00,22.6,8.1,31.00,ESE,105,0.0,6.0,53,0.00,,,0.00,Weather View 32 v70,2013-02-10 19:25:00,
2013-02-10 12:30:00,23.2,7.3,31.00,East,101,0.0,6.0,50,0.00,,,0.00,Weather View 32 v70,2013-02-10 19:30:00,
2013-02-10 12:35:00,24.3,6.9,31.00,SSE,162,0.0,6.0,47,0.00,,,0.00,Weather View 32 v70,2013-02-10 19:35:00,
2013-02-10 12:40:00,24.6,5.8,31.00,ENE,57,0.0,6.0,44,0.00,,,0.00,Weather View 32 v70,2013-02-10 19:40:00,
2013-02-10 12:45:00,24.3,6.0,31.00,ESE,109,6.0,6.0,45,0.00,,,0.00,Weather View 32 v70,2013-02-10 19:45:00,
2013-02-10 12:50:00,24.3,5.5,31.00,NW,315,0.0,6.0,44,0.00,,,0.00,Weather View 32 v70,2013-02-10 19:50:00,
2013-02-10 12:55:00,24.4,5.6,31.00,NNE,29,0.0,6.0,44,0.00,,,0.00,Weather View 32 v70,2013-02-10 19:55:00,
2013-02-10 13:00:00,23.9,6.1,31.00,North,9,0.0,6.0,46,0.00,,,0.00,Weather View 32 v70,2013-02-10 20:00:00,
2013-02-10 13:05:00,23.9,6.6,31.00,East,82,0.0,6.0,47,0.00,,,0.00,Weather View 32 v70,2013-02-10 20:05:00,
2013-02-10 13:10:00,22.6,6.8,31.00,North,353,0.0,6.0,50,0.00,,,0.00,Weather View 32 v70,2013-02-10 20:10:00,
2013-02-10 13:16:00,22.8,7.4,31.00,West,264,0.0,6.0,51,0.00,,,0.00,Weather View 32 v70,2013-02-10 20:16:00,
2013-02-10 13:21:00,22.6,6.8,31.00,SE,134,0.0,6.0,50,0.00,,,0.00,Weather View 32 v70,2013-02-10 20:21:00,
2013-02-10 13:26:00,22.6,7.2,31.00,NE,45,0.0,6.0,51,0.00,,,0.00,Weather View 32 v70,2013-02-10 20:26:00,
2013-02-10 13:31:00,22.6,8.5,31.00,North,353,0.0,6.0,54,0.00,,,0.00,Weather View 32 v70,2013-02-10 20:31:00,
2013-02-10 13:36:00,21.6,8.7,31.00,NNE,26,0.0,6.0,57,0.00,,,0.00,Weather View 32 v70,2013-02-10 20:36:00,
2013-02-10 13:41:00,21.4,9.3,31.00,NE,56,0.0,6.0,59,0.00,,,0.00,Weather View 32 v70,2013-02-10 20:41:00,
2013-02-10 13:46:00,21.6,9.8,31.00,NE,56,0.0,5.0,60,0.00,,,0.00,Weather View 32 v70,2013-02-10 20:46:00,
2013-02-10 13:51:00,21.9,10.9,31.00,East,100,0.0,5.0,62,0.00,,,0.00,Weather View 32 v70,2013-02-10 20:51:00,
2013-02-10 13:56:00,21.4,10.7,31.00,ENE,65,0.0,5.0,63,0.00,,,0.00,Weather View 32 v70,2013-02-10 20:56:00,
2013-02-10 14:01:00,21.2,11.3,31.00,North,10,0.0,5.0,65,0.00,,,0.00,Weather View 32 v70,2013-02-10 21:01:00,
2013-02-10 14:06:00,20.3,10.8,31.00,North,4,0.0,5.0,66,0.00,,,0.00,Weather View 32 v70,2013-02-10 21:06:00,
2013-02-10 14:11:00,19.9,11.4,31.00,North,353,0.0,5.0,69,0.00,,,0.00,Weather View 32 v70,2013-02-10 21:11:00,
2013-02-10 14:16:00,19.8,11.6,31.00,East,87,0.0,5.0,70,0.00,,,0.00,Weather View 32 v70,2013-02-10 21:16:00,
2013-02-10 14:21:00,19.9,12.1,31.00,North,353,0.0,5.0,71,0.00,,,0.00,Weather View 32 v70,2013-02-10 21:21:00,
2013-02-10 14:26:00,20.1,11.9,31.00,North,0,0.0,5.0,70,0.00,,,0.00,Weather View 32 v70,2013-02-10 21:26:00,
2013-02-10 14:31:00,20.3,11.4,31.00,NNE,19,0.0,5.0,68,0.00,,,0.00,Weather View 32 v70,2013-02-10 21:31:00,
2013-02-10 14:36:00,21.0,12.1,31.00,NNE,19,0.0,5.0,68,0.00,,,0.00,Weather View 32 v70,2013-02-10 21:36:00,
2013-02-10 14:41:00,21.4,10.4,31.00,NNE,18,0.0,5.0,62,0.00,,,0.00,Weather View 32 v70,2013-02-10 21:41:00,
2013-02-10 14:46:00,21.4,10.0,31.00,South,174,0.0,5.0,61,0.00,,,0.00,Weather View 32 v70,2013-02-10 21:46:00,
2013-02-10 14:51:00,21.6,6.2,31.00,West,266,0.0,5.0,51,0.00,,,0.00,Weather View 32 v70,2013-02-10 21:51:00,
2013-02-10 14:56:00,21.6,5.3,31.00,South,175,0.0,5.0,49,0.00,,,0.00,Weather View 32 v70,2013-02-10 21:56:00,
2013-02-10 15:01:00,21.2,5.9,31.00,NW,321,0.0,5.0,51,0.00,,,0.00,Weather View 32 v70,2013-02-10 22:01:00,
2013-02-10 15:06:00,21.0,4.8,31.00,WNW,285,0.0,0.0,49,0.00,,,0.00,Weather View 32 v70,2013-02-10 22:06:00,
2013-02-10 15:11:00,21.2,6.7,31.00,SE,140,0.0,5.0,53,0.00,,,0.00,Weather View 32 v70,2013-02-10 22:11:00,
2013-02-10 15:16:00,21.6,7.1,31.00,SE,140,0.0,5.0,53,0.00,,,0.00,Weather View 32 v70,2013-02-10 22:16:00,
2013-02-10 15:21:00,21.6,7.5,31.00,SW,232,0.0,5.0,54,0.00,,,0.00,Weather View 32 v70,2013-02-10 22:21:00,
2013-02-10 15:26:00,21.4,8.5,31.00,West,277,0.0,5.0,57,0.00,,,0.00,Weather View 32 v70,2013-02-10 22:26:00,
2013-02-10 15:31:00,20.8,7.2,31.00,West,264,0.0,5.0,55,0.00,,,0.00,Weather View 32 v70,2013-02-10 22:31:00,
2013-02-10 15:36:00,20.8,8.0,31.00,West,273,0.0,5.0,57,0.00,,,0.00,Weather View 32 v70,2013-02-10 22:36:00,
2013-02-10 15:41:00,20.7,7.8,31.00,WSW,252,0.0,5.0,57,0.00,,,0.00,Weather View 32 v70,2013-02-10 22:41:00,
2013-02-10 15:46:00,20.3,8.3,31.00,WSW,254,0.0,5.0,59,0.00,,,0.00,Weather View 32 v70,2013-02-10 22:46:00,
2013-02-10 15:51:00,20.3,8.6,31.00,WSW,254,0.0,5.0,60,0.00,,,0.00,Weather View 32 v70,2013-02-10 22:51:00,
2013-02-10 15:56:00,20.3,8.6,31.00,WSW,254,0.0,5.0,60,0.00,,,0.00,Weather View 32 v70,2013-02-10 22:56:00,
2013-02-10 16:01:00,20.3,8.6,31.00,SW,235,0.0,5.0,60,0.00,,,0.00,Weather View 32 v70,2013-02-10 23:01:00,
2013-02-10 16:06:00,20.3,9.7,31.00,WSW,238,0.0,5.0,63,0.00,,,0.00,Weather View 32 v70,2013-02-10 23:06:00,
2013-02-10 16:11:00,20.1,9.9,31.00,WSW,237,0.0,0.0,64,0.00,,,0.00,Weather View 32 v70,2013-02-10 23:11:00,
2013-02-10 16:16:00,20.1,10.2,31.00,WSW,237,0.0,0.0,65,0.00,,,0.00,Weather View 32 v70,2013-02-10 23:16:00,
2013-02-10 16:21:00,20.3,9.4,31.00,WSW,237,0.0,0.0,62,0.00,,,0.00,Weather View 32 v70,2013-02-10 23:21:00,
2013-02-10 16:26:00,20.1,9.2,31.00,WSW,238,0.0,0.0,62,0.00,,,0.00,Weather View 32 v70,2013-02-10 23:26:00,
2013-02-10 16:31:00,19.9,9.7,31.00,WSW,238,0.0,0.0,64,0.00,,,0.00,Weather View 32 v70,2013-02-10 23:31:00,
2013-02-10 16:36:00,19.9,9.7,31.00,WSW,238,0.0,0.0,64,0.00,,,0.00,Weather View 32 v70,2013-02-10 23:36:00,
2013-02-10 16:41:00,19.8,9.9,31.00,WSW,238,0.0,0.0,65,0.00,,,0.00,Weather View 32 v70,2013-02-10 23:41:00,
2013-02-10 16:46:00,19.6,10.1,31.00,WSW,238,0.0,0.0,66,0.00,,,0.00,Weather View 32 v70,2013-02-10 23:46:00,
2013-02-10 16:51:00,19.4,10.2,31.00,WSW,238,0.0,0.0,67,0.00,,,0.00,Weather View 32 v70,2013-02-10 23:51:00,
2013-02-10 16:56:00,19.4,10.2,31.00,WSW,238,0.0,0.0,67,0.00,,,0.00,Weather View 32 v70,2013-02-10 23:56:00,
2013-02-10 17:01:00,19.0,9.9,31.00,WSW,238,0.0,0.0,67,0.00,,,0.00,Weather View 32 v70,2013-02-11 00:01:00,
2013-02-10 17:06:00,18.7,9.5,31.00,WSW,238,0.0,0.0,67,0.00,,,0.00,Weather View 32 v70,2013-02-11 00:06:00,
2013-02-10 17:11:00,18.7,10.5,31.00,WSW,238,0.0,0.0,70,0.00,,,0.00,Weather View 32 v70,2013-02-11 00:11:00,
2013-02-10 17:16:00,18.5,11.3,31.00,WSW,238,0.0,0.0,73,0.00,,,0.00,Weather View 32 v70,2013-02-11 00:16:00,
2013-02-10 17:21:00,18.1,10.9,31.00,WSW,238,0.0,0.0,73,0.00,,,0.00,Weather View 32 v70,2013-02-11 00:21:00,
2013-02-10 17:26:00,17.6,9.5,31.00,NNW,344,0.0,0.0,70,0.00,,,0.00,Weather View 32 v70,2013-02-11 00:26:00,
2013-02-10 17:31:00,17.2,9.8,31.00,North,349,0.0,0.0,72,0.00,,,0.00,Weather View 32 v70,2013-02-11 00:31:00,
2013-02-10 17:36:00,17.1,9.9,31.00,North,349,0.0,0.0,73,0.00,,,0.00,Weather View 32 v70,2013-02-11 00:36:00,
2013-02-10 17:41:00,16.7,9.9,31.00,North,349,0.0,0.0,74,0.00,,,0.00,Weather View 32 v70,2013-02-11 00:41:00,
2013-02-10 17:46:00,16.2,9.6,31.00,North,349,0.0,0.0,75,0.00,,,0.00,Weather View 32 v70,2013-02-11 00:46:00,
2013-02-10 17:51:00,15.6,9.7,31.00,North,349,0.0,0.0,77,0.00,,,0.00,Weather View 32 v70,2013-02-11 00:51:00,
2013-02-10 17:56:00,15.1,9.2,31.00,North,349,0.0,0.0,77,0.00,,,0.00,Weather View 32 v70,2013-02-11 00:56:00,
2013-02-10 18:01:00,14.5,8.9,31.00,North,349,0.0,0.0,78,0.00,,,0.00,Weather View 32 v70,2013-02-11 01:01:00,
2013-02-10 18:06:00,14.0,8.7,31.00,North,349,0.0,0.0,79,0.00,,,0.00,Weather View 32 v70,2013-02-11 01:06:00,
2013-02-10 18:11:00,13.5,8.2,31.00,North,349,0.0,0.0,79,0.00,,,0.00,Weather View 32 v70,2013-02-11 01:11:00,
2013-02-10 18:16:00,13.3,8.0,31.00,North,349,0.0,0.0,79,0.00,,,0.00,Weather View 32 v70,2013-02-11 01:16:00,
2013-02-10 18:21:00,12.7,7.5,31.00,North,349,0.0,0.0,79,0.00,,,0.00,Weather View 32 v70,2013-02-11 01:21:00,
2013-02-10 18:26:00,12.2,6.9,31.00,North,349,0.0,0.0,79,0.00,,,0.00,Weather View 32 v70,2013-02-11 01:26:00,
2013-02-10 18:31:00,11.8,6.6,31.00,North,349,0.0,0.0,79,0.00,,,0.00,Weather View 32 v70,2013-02-11 01:31:00,
2013-02-10 18:36:00,11.3,6.1,31.00,North,349,0.0,0.0,79,0.00,,,0.00,Weather View 32 v70,2013-02-11 01:36:00,
2013-02-10 18:41:00,10.9,5.7,31.00,North,349,0.0,0.0,79,0.00,,,0.00,Weather View 32 v70,2013-02-11 01:41:00,
2013-02-10 18:46:00,10.6,5.4,31.00,North,349,0.0,0.0,79,0.00,,,0.00,Weather View 32 v70,2013-02-11 01:46:00,
2013-02-10 18:51:00,10.2,5.0,31.00,North,349,0.0,0.0,79,0.00,,,0.00,Weather View 32 v70,2013-02-11 01:51:00,
2013-02-10 18:56:00,10.0,4.8,31.00,North,349,0.0,0.0,79,0.00,,,0.00,Weather View 32 v70,2013-02-11 01:56:00,
2013-02-10 19:01:00,10.2,5.0,31.00,North,349,0.0,0.0,79,0.00,,,0.00,Weather View 32 v70,2013-02-11 02:01:00,
2013-02-10 19:06:00,10.2,5.0,31.00,North,349,0.0,0.0,79,0.00,,,0.00,Weather View 32 v70,2013-02-11 02:06:00,
2013-02-10 19:11:00,10.2,5.0,31.00,North,349,0.0,0.0,79,0.00,,,0.00,Weather View 32 v70,2013-02-11 02:11:00,
2013-02-10 19:16:00,10.2,5.0,31.00,North,349,0.0,0.0,79,0.00,,,0.00,Weather View 32 v70,2013-02-11 02:16:00,
2013-02-10 19:21:00,10.2,5.0,31.00,North,349,0.0,0.0,79,0.00,,,0.00,Weather View 32 v70,2013-02-11 02:21:00,
2013-02-10 19:26:00,10.2,5.0,31.00,North,349,0.0,0.0,79,0.00,,,0.00,Weather View 32 v70,2013-02-11 02:26:00,
2013-02-10 19:31:00,10.4,5.2,31.00,North,349,0.0,0.0,79,0.00,,,0.00,Weather View 32 v70,2013-02-11 02:31:00,
2013-02-10 19:36:00,10.8,5.5,31.00,North,349,0.0,0.0,79,0.00,,,0.00,Weather View 32 v70,2013-02-11 02:36:00,
2013-02-10 19:41:00,11.1,5.9,31.00,North,349,0.0,0.0,79,0.00,,,0.00,Weather View 32 v70,2013-02-11 02:41:00,
2013-02-10 19:46:00,11.3,6.1,31.00,North,349,0.0,0.0,79,0.00,,,0.00,Weather View 32 v70,2013-02-11 02:46:00,
2013-02-10 19:51:00,11.5,6.2,31.00,WNW,289,0.0,0.0,79,0.00,,,0.00,Weather View 32 v70,2013-02-11 02:51:00,
2013-02-10 19:56:00,12.2,6.9,31.00,North,357,0.0,0.0,79,0.00,,,0.00,Weather View 32 v70,2013-02-11 02:56:00,
2013-02-10 20:01:00,12.6,7.3,31.00,North,357,0.0,0.0,79,0.00,,,0.00,Weather View 32 v70,2013-02-11 03:01:00,
2013-02-10 20:06:00,12.6,7.3,31.00,North,357,0.0,0.0,79,0.00,,,0.00,Weather View 32 v70,2013-02-11 03:06:00,
2013-02-10 20:11:00,12.7,7.5,31.00,North,357,0.0,0.0,79,0.00,,,0.00,Weather View 32 v70,2013-02-11 03:11:00,
2013-02-10 20:16:00,12.7,7.5,31.00,WNW,285,0.0,0.0,79,0.00,,,0.00,Weather View 32 v70,2013-02-11 03:16:00,
2013-02-10 20:21:00,12.7,7.5,31.00,SW,236,0.0,0.0,79,0.00,,,0.00,Weather View 32 v70,2013-02-11 03:21:00,
2013-02-10 20:26:00,12.2,6.9,31.00,SW,236,0.0,0.0,79,0.00,,,0.00,Weather View 32 v70,2013-02-11 03:26:00,
2013-02-10 20:31:00,11.8,6.6,31.00,NNE,30,0.0,0.0,79,0.00,,,0.00,Weather View 32 v70,2013-02-11 03:31:00,
2013-02-10 20:36:00,11.1,5.9,31.00,NNE,30,0.0,0.0,79,0.00,,,0.00,Weather View 32 v70,2013-02-11 03:36:00,
2013-02-10 20:41:00,10.4,5.2,31.00,NNE,30,0.0,0.0,79,0.00,,,0.00,Weather View 32 v70,2013-02-11 03:41:00,
2013-02-10 20:46:00,10.6,5.4,31.00,NNW,329,0.0,0.0,79,0.00,,,0.00,Weather View 32 v70,2013-02-11 03:46:00,
2013-02-10 20:51:00,10.6,5.4,31.00,West,261,0.0,0.0,79,0.00,,,0.00,Weather View 32 v70,2013-02-11 03:51:00,
2013-02-10 20:56:00,10.9,5.7,31.00,WSW,252,0.0,0.0,79,0.00,,,0.00,Weather View 32 v70,2013-02-11 03:56:00,
2013-02-10 21:01:00,11.3,6.1,31.00,WNW,288,0.0,0.0,79,0.00,,,0.00,Weather View 32 v70,2013-02-11 04:01:00,
2013-02-10 21:06:00,11.3,6.1,31.00,WSW,250,0.0,0.0,79,0.00,,,0.00,Weather View 32 v70,2013-02-11 04:06:00,
2013-02-10 21:11:00,11.3,6.1,31.00,West,264,3.0,5.0,79,0.00,,,0.00,Weather View 32 v70,2013-02-11 04:11:00,
2013-02-10 21:16:00,11.5,6.2,31.00,WSW,248,0.0,5.0,79,0.00,,,0.00,Weather View 32 v70,2013-02-11 04:16:00,
2013-02-10 21:22:00,11.7,6.4,31.00,WSW,246,0.0,5.0,79,0.00,,,0.00,Weather View 32 v70,2013-02-11 04:22:00,
2013-02-10 21:27:00,11.7,6.4,31.00,West,268,0.0,5.0,79,0.00,,,0.00,Weather View 32 v70,2013-02-11 04:27:00,
2013-02-10 21:32:00,11.5,6.2,31.00,West,261,0.0,5.0,79,0.00,,,0.00,Weather View 32 v70,2013-02-11 04:32:00,
2013-02-10 21:37:00,11.7,6.4,31.00,West,261,0.0,5.0,79,0.00,,,0.00,Weather View 32 v70,2013-02-11 04:37:00,
2013-02-10 21:42:00,11.7,6.4,31.00,West,261,0.0,5.0,79,0.00,,,0.00,Weather View 32 v70,2013-02-11 04:42:00,
2013-02-10 21:47:00,12.0,6.8,31.00,West,261,0.0,5.0,79,0.00,,,0.00,Weather View 32 v70,2013-02-11 04:47:00,
2013-02-10 21:52:00,12.0,6.8,31.00,West,261,0.0,5.0,79,0.00,,,0.00,Weather View 32 v70,2013-02-11 04:52:00,
2013-02-10 21:57:00,12.0,6.8,31.00,West,261,0.0,5.0,79,0.00,,,0.00,Weather View 32 v70,2013-02-11 04:57:00,
2013-02-10 22:00:00,12.0,6.8,31.00,West,261,0.0,5.0,79,0.00,,,0.00,Weather View 32 v70,2013-02-11 05:00:00,
2013-02-10 22:05:00,12.0,6.8,31.00,West,261,0.0,5.0,79,0.00,,,0.00,Weather View 32 v70,2013-02-11 05:05:00,
2013-02-10 22:10:00,12.0,6.8,31.00,West,261,0.0,5.0,79,0.00,,,0.00,Weather View 32 v70,2013-02-11 05:10:00,
2013-02-10 22:15:00,12.0,6.8,31.00,West,261,0.0,0.0,79,0.00,,,0.00,Weather View 32 v70,2013-02-11 05:15:00,
2013-02-10 22:20:00,12.0,6.8,31.00,West,261,0.0,0.0,79,0.00,,,0.00,Weather View 32 v70,2013-02-11 05:20:00,
2013-02-10 22:25:00,11.8,6.6,31.00,West,261,0.0,0.0,79,0.00,,,0.00,Weather View 32 v70,2013-02-11 05:25:00,
2013-02-10 22:30:00,11.7,6.4,31.00,West,261,0.0,0.0,79,0.00,,,0.00,Weather View 32 v70,2013-02-11 05:30:00,
2013-02-10 22:35:00,11.5,6.2,31.00,West,261,0.0,0.0,79,0.00,,,0.00,Weather View 32 v70,2013-02-11 05:35:00,
2013-02-10 22:40:00,11.1,5.9,31.00,West,261,0.0,0.0,79,0.00,,,0.00,Weather View 32 v70,2013-02-11 05:40:00,
2013-02-10 22:45:00,11.1,5.9,31.00,West,261,0.0,0.0,79,0.00,,,0.00,Weather View 32 v70,2013-02-11 05:45:00,
2013-02-10 22:50:00,10.9,5.7,31.00,WSW,253,0.0,0.0,79,0.00,,,0.00,Weather View 32 v70,2013-02-11 05:50:00,
2013-02-10 22:55:00,11.1,5.9,31.00,NW,307,2.0,7.0,79,0.00,,,0.00,Weather View 32 v70,2013-02-11 05:55:00,
2013-02-10 23:00:00,11.1,5.9,31.00,West,266,0.0,7.0,79,0.00,,,0.00,Weather View 32 v70,2013-02-11 06:00:00,
2013-02-10 23:05:00,11.1,5.9,31.00,WNW,288,0.0,7.0,79,0.00,,,0.00,Weather View 32 v70,2013-02-11 06:05:00,
2013-02-10 23:10:00,11.1,5.9,31.00,WSW,242,0.0,7.0,79,0.00,,,0.00,Weather View 32 v70,2013-02-11 06:10:00,
2013-02-10 23:15:00,11.3,6.1,31.00,WSW,242,0.0,7.0,79,0.00,,,0.00,Weather View 32 v70,2013-02-11 06:15:00,
2013-02-10 23:20:00,11.5,6.2,31.00,WSW,242,0.0,7.0,79,0.00,,,0.00,Weather View 32 v70,2013-02-11 06:20:00,
2013-02-10 23:25:00,11.3,6.1,31.00,WSW,242,0.0,7.0,79,0.00,,,0.00,Weather View 32 v70,2013-02-11 06:25:00,
2013-02-10 23:30:00,11.3,6.1,31.00,WSW,242,0.0,7.0,79,0.00,,,0.00,Weather View 32 v70,2013-02-11 06:30:00,
2013-02-10 23:35:00,11.7,6.4,31.00,WSW,242,0.0,7.0,79,0.00,,,0.00,Weather View 32 v70,2013-02-11 06:35:00,
2013-02-10 23:40:00,12.0,6.8,31.00,West,263,0.0,7.0,79,0.00,,,0.00,Weather View 32 v70,2013-02-11 06:40:00,
2013-02-10 23:45:00,12.0,6.8,31.00,WNW,284,0.0,7.0,79,0.00,,,0.00,Weather View 32 v70,2013-02-11 06:45:00,
2013-02-10 23:50:00,12.0,6.8,31.00,West,275,0.0,7.0,79,0.00,,,0.00,Weather View 32 v70,2013-02-11 06:50:00,
2013-02-10 23:55:00,12.0,6.8,31.00,WNW,297,0.0,7.0,79,0.00,,,0.00,Weather View 32 v70,2013-02-11 06:55:00,